createdAt,value
2019-03-05T00:00:28.026Z,99062.35
2019-03-05T00:00:59.236Z,99066.22
2019-03-05T00:01:30.411Z,99063.66
2019-03-05T00:02:01.657Z,99060.66
2019-03-05T00:02:32.816Z,99066.30
2019-03-05T00:03:03.999Z,99060.30
2019-03-05T00:03:35.154Z,99061.64
2019-03-05T00:04:06.321Z,99063.79
2019-03-05T00:04:37.509Z,99061.69
2019-03-05T00:05:08.671Z,99063.00
2019-03-05T00:05:39.855Z,99064.71
2019-03-05T00:06:11.068Z,99063.89
2019-03-05T00:06:42.280Z,99061.28
2019-03-05T00:07:13.984Z,99069.05
2019-03-05T00:07:45.142Z,99059.17
2019-03-05T00:08:16.317Z,99057.86
2019-03-05T00:08:47.479Z,99059.16
2019-03-05T00:09:18.804Z,99060.44
2019-03-05T00:09:49.960Z,99054.83
2019-03-05T00:10:21.123Z,99060.87
2019-03-05T00:10:52.299Z,99061.72
2019-03-05T00:11:23.460Z,99062.58
2019-03-05T00:11:54.751Z,99060.00
2019-03-05T00:12:25.917Z,99052.70
2019-03-05T00:12:57.093Z,99059.16
2019-03-05T00:13:28.268Z,99058.73
2019-03-05T00:13:59.473Z,99057.86
2019-03-05T00:14:30.675Z,99052.70
2019-03-05T00:15:01.864Z,99055.28
2019-03-05T00:15:33.055Z,99052.70
2019-03-05T00:16:04.217Z,99051.41
2019-03-05T00:16:35.382Z,99050.96
2019-03-05T00:17:06.586Z,99052.68
2019-03-05T00:17:37.746Z,99053.97
2019-03-05T00:18:08.910Z,99053.55
2019-03-05T00:18:40.073Z,99053.97
2019-03-05T00:19:11.309Z,99052.25
2019-03-05T00:19:42.576Z,99050.98
2019-03-05T00:20:13.752Z,99053.96
2019-03-05T00:20:44.921Z,99053.55
2019-03-05T00:21:16.099Z,99053.12
2019-03-05T00:21:47.285Z,99052.72
2019-03-05T00:22:18.483Z,99052.27
2019-03-05T00:22:49.653Z,99051.01
2019-03-05T00:23:20.850Z,99059.23
2019-03-05T00:23:52.031Z,99058.83
2019-03-05T00:24:23.221Z,99057.11
2019-03-05T00:24:54.402Z,99048.55
2019-03-05T00:25:25.613Z,99047.23
2019-03-05T00:25:56.780Z,99047.66
2019-03-05T00:26:28.000Z,99054.11
2019-03-05T00:26:59.226Z,99051.53
2019-03-05T00:27:30.449Z,99048.50
2019-03-05T00:28:01.660Z,99049.77
2019-03-05T00:28:32.860Z,99050.24
2019-03-05T00:29:04.072Z,99051.53
2019-03-05T00:29:35.284Z,99057.11
2019-03-05T00:30:06.526Z,99051.53
2019-03-05T00:30:37.734Z,99055.85
2019-03-05T00:31:08.917Z,99056.72
2019-03-05T00:31:40.112Z,99054.59
2019-03-05T00:32:11.316Z,99057.66
2019-03-05T00:32:42.534Z,99056.37
2019-03-05T00:33:13.779Z,99055.97
2019-03-05T00:33:45.007Z,99058.14
2019-03-05T00:34:16.242Z,99056.88
2019-03-05T00:34:47.456Z,99051.75
2019-03-05T00:35:18.663Z,99056.04
2019-03-05T00:35:49.883Z,99054.75
2019-03-05T00:36:21.076Z,99047.41
2019-03-05T00:36:52.275Z,99049.59
2019-03-05T00:37:23.489Z,99049.59
2019-03-05T00:37:54.707Z,99047.87
2019-03-05T00:38:25.927Z,99044.42
2019-03-05T00:38:57.092Z,99050.03
2019-03-05T00:39:28.257Z,99049.58
2019-03-05T00:39:59.419Z,99049.58
2019-03-05T00:40:30.592Z,99056.04
2019-03-05T00:41:01.741Z,99052.17
2019-03-05T00:41:32.949Z,99052.17
2019-03-05T00:42:04.106Z,99047.02
2019-03-05T00:42:35.336Z,99047.02
2019-03-05T00:43:06.501Z,99039.27
2019-03-05T00:43:37.665Z,99044.88
2019-03-05T00:44:08.900Z,99037.55
2019-03-05T00:44:40.144Z,99041.84
2019-03-05T00:45:11.387Z,99043.09
2019-03-05T00:45:42.622Z,99041.80
2019-03-05T00:46:13.912Z,99034.05
2019-03-05T00:46:45.134Z,99036.63
2019-03-05T00:47:16.368Z,99034.48
2019-03-05T00:47:47.619Z,99038.34
2019-03-05T00:48:18.864Z,99037.92
2019-03-05T00:48:50.136Z,99037.48
2019-03-05T00:49:21.394Z,99032.31
2019-03-05T00:49:52.621Z,99034.48
2019-03-05T00:50:23.869Z,99034.05
2019-03-05T00:50:55.113Z,99031.89
2019-03-05T00:51:26.361Z,99034.05
2019-03-05T00:51:57.591Z,99034.90
2019-03-05T00:52:28.819Z,99034.48
2019-03-05T00:53:00.069Z,99032.34
2019-03-05T00:53:31.310Z,99032.77
2019-03-05T00:54:02.556Z,99030.63
2019-03-05T00:54:33.740Z,99035.32
2019-03-05T00:55:04.961Z,99035.74
2019-03-05T00:55:36.225Z,99032.31
2019-03-05T00:56:07.441Z,99035.32
2019-03-05T00:56:38.662Z,99036.61
2019-03-05T00:57:09.890Z,99034.05
2019-03-05T00:57:41.151Z,99033.20
2019-03-05T00:58:12.381Z,99035.39
2019-03-05T00:58:43.642Z,99025.48
2019-03-05T00:59:14.885Z,99028.96
2019-03-05T00:59:46.103Z,99028.96
2019-03-05T01:00:17.391Z,99022.96
2019-03-05T01:00:48.654Z,99031.55
2019-03-05T01:01:19.877Z,99029.83
2019-03-05T01:01:51.102Z,99025.13
2019-03-05T01:02:22.332Z,99030.70
2019-03-05T01:02:53.602Z,99032.41
2019-03-05T01:03:24.798Z,99034.17
2019-03-05T01:03:56.014Z,99033.30
2019-03-05T01:04:27.246Z,99034.17
2019-03-05T01:04:58.519Z,99036.75
2019-03-05T01:05:29.712Z,99024.72
2019-03-05T01:06:00.937Z,99030.33
2019-03-05T01:06:32.203Z,99027.77
2019-03-05T01:07:03.445Z,99023.92
2019-03-05T01:07:34.660Z,99027.39
2019-03-05T01:08:08.343Z,99025.72
2019-03-05T01:08:39.511Z,99022.77
2019-03-05T01:09:10.772Z,99025.36
2019-03-05T01:09:41.928Z,99026.70
2019-03-05T01:10:13.109Z,99027.19
2019-03-05T01:10:44.269Z,99030.25
2019-03-05T01:11:15.500Z,99034.58
2019-03-05T01:11:46.673Z,99032.49
2019-03-05T01:12:17.831Z,99028.66
2019-03-05T01:12:49.049Z,99028.28
2019-03-05T01:13:20.271Z,99033.90
2019-03-05T01:13:51.492Z,99027.92
2019-03-05T01:14:22.696Z,99024.54
2019-03-05T01:14:53.909Z,99024.58
2019-03-05T01:15:25.119Z,99022.02
2019-03-05T01:15:56.325Z,99021.16
2019-03-05T01:16:27.556Z,99017.72
2019-03-05T01:16:58.761Z,99019.02
2019-03-05T01:17:29.965Z,99017.72
2019-03-05T01:18:01.199Z,99017.72
2019-03-05T01:18:32.403Z,99013.47
2019-03-05T01:19:03.669Z,99008.75
2019-03-05T01:19:34.875Z,99007.03
2019-03-05T01:20:06.109Z,99007.05
2019-03-05T01:20:37.329Z,99010.03
2019-03-05T01:21:08.600Z,99008.77
2019-03-05T01:21:39.792Z,99005.31
2019-03-05T01:22:10.999Z,99002.74
2019-03-05T01:22:42.239Z,99004.47
2019-03-05T01:23:13.480Z,98999.75
2019-03-05T01:23:44.672Z,98998.88
2019-03-05T01:24:15.877Z,98994.58
2019-03-05T01:24:47.084Z,99002.33
2019-03-05T01:25:18.287Z,99002.30
2019-03-05T01:25:49.536Z,99006.59
2019-03-05T01:26:20.760Z,99003.55
2019-03-05T01:26:51.972Z,99003.56
2019-03-05T01:27:23.183Z,98999.68
2019-03-05T01:27:54.394Z,99002.70
2019-03-05T01:28:25.590Z,98996.28
2019-03-05T01:28:56.870Z,99002.69
2019-03-05T01:29:28.078Z,99001.39
2019-03-05T01:29:59.295Z,98997.11
2019-03-05T01:30:31.640Z,98990.66
2019-03-05T01:31:02.866Z,98991.94
2019-03-05T01:31:34.077Z,98989.34
2019-03-05T01:32:05.296Z,98991.89
2019-03-05T01:32:36.500Z,98990.17
2019-03-05T01:33:07.740Z,98987.98
2019-03-05T01:33:38.952Z,98993.17
2019-03-05T01:34:10.218Z,98990.61
2019-03-05T01:34:41.398Z,98986.73
2019-03-05T01:35:12.602Z,98991.88
2019-03-05T01:35:43.807Z,98994.86
2019-03-05T01:36:15.010Z,98987.53
2019-03-05T01:36:46.226Z,98988.82
2019-03-05T01:37:17.448Z,98984.50
2019-03-05T01:37:48.673Z,98990.48
2019-03-05T01:38:19.958Z,98996.06
2019-03-05T01:38:51.168Z,98995.63
2019-03-05T01:39:22.371Z,98996.45
2019-03-05T01:39:53.572Z,98996.45
2019-03-05T01:40:24.794Z,98997.73
2019-03-05T01:40:56.014Z,99002.91
2019-03-05T01:41:27.225Z,98994.77
2019-03-05T01:41:58.491Z,98995.22
2019-03-05T01:42:29.699Z,98996.11
2019-03-05T01:43:00.904Z,99000.42
2019-03-05T01:43:32.123Z,98997.41
2019-03-05T01:44:03.338Z,98996.13
2019-03-05T01:44:34.551Z,98996.13
2019-03-05T01:45:05.766Z,98994.84
2019-03-05T01:45:36.975Z,98990.55
2019-03-05T01:46:08.187Z,98993.59
2019-03-05T01:46:39.486Z,98997.41
2019-03-05T01:47:10.751Z,98994.84
2019-03-05T01:47:41.971Z,98993.55
2019-03-05T01:48:13.210Z,98992.26
2019-03-05T01:48:44.420Z,98993.11
2019-03-05T01:49:15.633Z,98992.66
2019-03-05T01:49:46.846Z,98984.06
2019-03-05T01:50:18.044Z,98991.77
2019-03-05T01:50:49.257Z,98983.62
2019-03-05T01:51:20.478Z,98985.73
2019-03-05T01:51:51.666Z,98987.84
2019-03-05T01:52:22.918Z,98990.88
2019-03-05T01:52:54.129Z,98992.56
2019-03-05T01:53:25.333Z,98991.69
2019-03-05T01:53:56.567Z,98989.13
2019-03-05T01:54:27.772Z,98982.20
2019-03-05T01:54:58.978Z,98987.78
2019-03-05T01:55:30.225Z,98988.66
2019-03-05T01:56:01.432Z,98982.60
2019-03-05T01:56:32.636Z,98989.47
2019-03-05T01:57:03.846Z,98987.77
2019-03-05T01:57:35.047Z,98980.42
2019-03-05T01:58:06.258Z,98988.16
2019-03-05T01:58:37.448Z,98985.58
2019-03-05T01:59:08.683Z,98988.16
2019-03-05T01:59:39.872Z,98989.88
2019-03-05T02:00:11.946Z,98989.45
2019-03-05T02:00:43.324Z,98989.92
2019-03-05T02:01:14.606Z,98992.50
2019-03-05T02:01:45.813Z,98990.34
2019-03-05T02:02:17.025Z,98989.90
2019-03-05T02:02:48.225Z,98991.16
2019-03-05T02:03:19.444Z,98994.22
2019-03-05T02:03:50.712Z,98989.92
2019-03-05T02:04:21.910Z,98986.08
2019-03-05T02:04:53.130Z,98986.49
2019-03-05T02:05:24.372Z,98986.08
2019-03-05T02:05:55.584Z,98983.89
2019-03-05T02:06:26.795Z,98983.05
2019-03-05T02:06:58.044Z,98988.20
2019-03-05T02:07:29.284Z,98988.65
2019-03-05T02:08:00.509Z,98985.70
2019-03-05T02:08:31.719Z,98990.00
2019-03-05T02:09:02.907Z,98991.31
2019-03-05T02:09:34.193Z,98990.05
2019-03-05T02:10:05.402Z,98991.77
2019-03-05T02:10:36.608Z,98982.38
2019-03-05T02:11:07.833Z,98990.53
2019-03-05T02:11:39.040Z,98988.42
2019-03-05T02:12:10.245Z,98988.02
2019-03-05T02:12:41.460Z,98983.72
2019-03-05T02:13:12.673Z,98989.33
2019-03-05T02:13:43.950Z,98988.89
2019-03-05T02:14:15.195Z,98984.61
2019-03-05T02:14:46.412Z,98985.88
2019-03-05T02:15:17.620Z,98988.47
2019-03-05T02:15:48.820Z,98991.91
2019-03-05T02:16:20.023Z,98988.91
2019-03-05T02:16:51.233Z,98989.36
2019-03-05T02:17:22.427Z,98984.64
2019-03-05T02:17:53.635Z,98991.11
2019-03-05T02:18:24.842Z,98987.70
2019-03-05T02:18:56.148Z,98989.44
2019-03-05T02:19:27.410Z,98986.45
2019-03-05T02:19:58.626Z,98986.05
2019-03-05T02:20:29.844Z,98989.05
2019-03-05T02:21:01.057Z,98985.18
2019-03-05T02:21:32.318Z,98983.05
2019-03-05T02:22:03.529Z,98982.63
2019-03-05T02:22:34.739Z,98985.62
2019-03-05T02:23:05.926Z,98992.53
2019-03-05T02:23:37.140Z,98989.53
2019-03-05T02:24:08.371Z,98994.30
2019-03-05T02:24:39.566Z,98996.42
2019-03-05T02:25:10.788Z,98999.45
2019-03-05T02:25:41.987Z,98999.92
2019-03-05T02:26:13.187Z,99005.94
2019-03-05T02:26:44.414Z,99006.80
2019-03-05T02:27:15.594Z,99006.81
2019-03-05T02:27:46.818Z,99010.28
2019-03-05T02:28:18.022Z,99009.04
2019-03-05T02:28:49.214Z,99002.17
2019-03-05T02:29:20.517Z,99006.89
2019-03-05T02:29:51.734Z,99005.18
2019-03-05T02:30:22.942Z,99004.77
2019-03-05T02:30:54.264Z,99007.75
2019-03-05T02:31:25.469Z,99005.63
2019-03-05T02:31:56.713Z,99001.74
2019-03-05T02:32:27.916Z,99003.46
2019-03-05T02:32:59.128Z,99002.17
2019-03-05T02:33:30.343Z,99006.04
2019-03-05T02:34:01.579Z,99002.63
2019-03-05T02:34:32.822Z,99005.66
2019-03-05T02:35:04.046Z,99001.40
2019-03-05T02:35:35.226Z,99002.27
2019-03-05T02:36:06.473Z,98999.70
2019-03-05T02:36:38.747Z,99000.12
2019-03-05T02:37:09.948Z,98999.30
2019-03-05T02:37:41.143Z,98999.30
2019-03-05T02:38:12.347Z,98995.00
2019-03-05T02:38:43.561Z,98999.73
2019-03-05T02:39:14.787Z,98996.70
2019-03-05T02:39:45.995Z,98994.58
2019-03-05T02:40:17.191Z,98994.99
2019-03-05T02:40:48.429Z,99001.42
2019-03-05T02:41:21.463Z,98998.02
2019-03-05T02:41:52.678Z,98996.73
2019-03-05T02:42:23.884Z,99003.61
2019-03-05T02:42:55.097Z,99003.59
2019-03-05T02:43:26.306Z,99002.77
2019-03-05T02:43:57.552Z,99006.66
2019-03-05T02:44:28.766Z,99003.67
2019-03-05T02:44:59.975Z,99007.12
2019-03-05T02:45:31.709Z,99000.30
2019-03-05T02:46:03.059Z,99001.58
2019-03-05T02:46:34.307Z,98996.02
2019-03-05T02:47:05.521Z,98996.45
2019-03-05T02:47:36.740Z,98992.16
2019-03-05T02:48:07.950Z,99001.20
2019-03-05T02:48:39.162Z,98990.02
2019-03-05T02:49:10.417Z,98995.16
2019-03-05T02:49:41.634Z,98998.17
2019-03-05T02:50:12.844Z,98996.87
2019-03-05T02:50:44.059Z,98996.88
2019-03-05T02:51:15.270Z,98999.45
2019-03-05T02:51:46.523Z,99000.74
2019-03-05T02:52:17.805Z,98998.59
2019-03-05T02:52:49.012Z,99002.87
2019-03-05T02:53:20.218Z,98997.31
2019-03-05T02:53:51.430Z,98999.42
2019-03-05T02:54:22.639Z,99002.87
2019-03-05T02:54:53.839Z,98999.42
2019-03-05T02:55:25.067Z,98995.58
2019-03-05T02:55:57.311Z,98989.98
2019-03-05T02:56:28.486Z,98990.43
2019-03-05T02:56:59.713Z,98986.59
2019-03-05T02:57:30.963Z,98986.56
2019-03-05T02:58:02.175Z,98986.56
2019-03-05T02:58:33.406Z,98987.84
2019-03-05T02:59:04.614Z,98982.26
2019-03-05T02:59:35.830Z,98982.22
2019-03-05T03:00:07.051Z,98976.66
2019-03-05T03:00:38.259Z,98974.50
2019-03-05T03:01:09.520Z,98970.20
2019-03-05T03:01:40.729Z,98970.63
2019-03-05T03:02:11.955Z,98973.64
2019-03-05T03:02:43.134Z,98971.47
2019-03-05T03:03:14.350Z,98971.03
2019-03-05T03:03:45.579Z,98973.16
2019-03-05T03:04:16.782Z,98971.89
2019-03-05T03:04:48.001Z,98974.45
2019-03-05T03:05:19.215Z,98977.45
2019-03-05T03:05:50.426Z,98976.55
2019-03-05T03:06:21.688Z,98978.73
2019-03-05T03:06:52.901Z,98977.84
2019-03-05T03:07:24.132Z,98976.98
2019-03-05T03:07:55.313Z,98971.84
2019-03-05T03:08:26.525Z,98972.70
2019-03-05T03:08:57.737Z,98975.28
2019-03-05T03:09:28.955Z,98969.69
2019-03-05T03:10:00.199Z,98964.56
2019-03-05T03:10:31.542Z,98973.55
2019-03-05T03:11:02.752Z,98967.11
2019-03-05T03:11:34.011Z,98970.11
2019-03-05T03:12:05.229Z,98968.83
2019-03-05T03:12:36.416Z,98972.26
2019-03-05T03:13:07.648Z,98976.96
2019-03-05T03:13:38.848Z,98977.80
2019-03-05T03:14:10.052Z,98979.54
2019-03-05T03:14:41.268Z,98984.70
2019-03-05T03:15:12.491Z,98981.27
2019-03-05T03:15:43.745Z,98984.67
2019-03-05T03:16:14.968Z,98983.38
2019-03-05T03:16:46.176Z,98984.23
2019-03-05T03:17:17.393Z,98982.56
2019-03-05T03:17:48.610Z,98979.55
2019-03-05T03:18:19.813Z,98977.84
2019-03-05T03:18:51.088Z,98972.69
2019-03-05T03:19:22.297Z,98970.98
2019-03-05T03:19:53.505Z,98977.41
2019-03-05T03:20:24.729Z,98978.70
2019-03-05T03:20:55.960Z,98974.84
2019-03-05T03:21:27.218Z,98973.13
2019-03-05T03:21:58.440Z,98971.87
2019-03-05T03:22:29.667Z,98976.98
2019-03-05T03:23:00.864Z,98974.41
2019-03-05T03:23:32.078Z,98972.28
2019-03-05T03:24:03.283Z,98974.47
2019-03-05T03:24:34.505Z,98970.16
2019-03-05T03:25:05.723Z,98969.73
2019-03-05T03:25:36.956Z,98967.56
2019-03-05T03:26:08.161Z,98970.59
2019-03-05T03:26:39.401Z,98976.59
2019-03-05T03:27:10.665Z,98975.31
2019-03-05T03:27:41.880Z,98972.78
2019-03-05T03:28:13.102Z,98965.05
2019-03-05T03:28:44.344Z,98966.38
2019-03-05T03:29:15.544Z,98967.67
2019-03-05T03:29:46.776Z,98957.37
2019-03-05T03:30:18.010Z,98959.05
2019-03-05T03:30:49.200Z,98954.27
2019-03-05T03:31:20.416Z,98959.41
2019-03-05T03:31:51.632Z,98966.25
2019-03-05T03:32:22.835Z,98965.82
2019-03-05T03:32:54.050Z,98964.09
2019-03-05T03:33:25.348Z,98961.06
2019-03-05T03:33:56.552Z,98962.80
2019-03-05T03:34:27.810Z,98965.82
2019-03-05T03:34:59.261Z,98966.67
2019-03-05T03:35:30.539Z,98961.08
2019-03-05T03:36:01.757Z,98968.81
2019-03-05T03:36:33.087Z,98971.84
2019-03-05T03:37:04.311Z,98967.99
2019-03-05T03:37:35.545Z,98973.13
2019-03-05T03:38:06.751Z,98972.30
2019-03-05T03:38:37.973Z,98972.73
2019-03-05T03:39:09.332Z,98974.45
2019-03-05T03:39:40.545Z,98971.90
2019-03-05T03:40:11.731Z,98967.20
2019-03-05T03:40:42.937Z,98973.63
2019-03-05T03:41:14.153Z,98968.04
2019-03-05T03:41:45.395Z,98964.17
2019-03-05T03:42:16.671Z,98968.48
2019-03-05T03:42:47.897Z,98968.48
2019-03-05T03:43:19.097Z,98971.06
2019-03-05T03:43:50.293Z,98971.90
2019-03-05T03:44:21.504Z,98971.06
2019-03-05T03:44:52.716Z,98971.87
2019-03-05T03:45:23.918Z,98976.17
2019-03-05T03:45:55.153Z,98982.19
2019-03-05T03:46:26.403Z,98975.75
2019-03-05T03:46:57.611Z,98975.31
2019-03-05T03:47:28.832Z,98979.17
2019-03-05T03:48:00.034Z,98972.73
2019-03-05T03:48:31.281Z,98966.74
2019-03-05T03:49:02.482Z,98964.20
2019-03-05T03:49:33.712Z,98965.05
2019-03-05T03:50:04.906Z,98968.94
2019-03-05T03:50:36.169Z,98970.65
2019-03-05T03:51:07.376Z,98973.20
2019-03-05T03:51:38.592Z,98977.05
2019-03-05T03:52:09.809Z,98977.89
2019-03-05T03:52:41.021Z,98974.47
2019-03-05T03:53:12.280Z,98974.88
2019-03-05T03:53:43.479Z,98975.74
2019-03-05T03:54:14.709Z,98974.88
2019-03-05T03:54:45.908Z,98966.73
2019-03-05T03:55:17.119Z,98970.61
2019-03-05T03:55:48.324Z,98968.89
2019-03-05T03:56:19.533Z,98971.06
2019-03-05T03:56:50.765Z,98969.34
2019-03-05T03:57:21.950Z,98966.77
2019-03-05T03:57:53.161Z,98969.75
2019-03-05T03:58:24.396Z,98971.52
2019-03-05T03:58:55.629Z,98970.67
2019-03-05T03:59:26.819Z,98969.85
2019-03-05T03:59:58.018Z,98962.13
2019-03-05T04:00:29.267Z,98953.94
2019-03-05T04:01:00.478Z,98967.22
2019-03-05T04:01:31.684Z,98965.94
2019-03-05T04:02:02.909Z,98965.95
2019-03-05T04:02:34.125Z,98966.38
2019-03-05T04:03:05.336Z,98966.38
2019-03-05T04:03:36.537Z,98962.91
2019-03-05T04:04:07.772Z,98968.92
2019-03-05T04:04:38.986Z,98963.77
2019-03-05T04:05:10.224Z,98965.05
2019-03-05T04:05:41.402Z,98968.48
2019-03-05T04:06:12.604Z,98969.34
2019-03-05T04:06:43.810Z,98966.81
2019-03-05T04:07:15.033Z,98965.09
2019-03-05T04:07:46.255Z,98966.38
2019-03-05T04:08:17.473Z,98967.70
2019-03-05T04:08:48.739Z,98965.12
2019-03-05T04:09:19.953Z,98965.13
2019-03-05T04:09:51.333Z,98964.30
2019-03-05T04:10:22.556Z,98972.87
2019-03-05T04:10:53.762Z,98973.29
2019-03-05T04:11:24.972Z,98972.03
2019-03-05T04:11:58.620Z,98973.77
2019-03-05T04:12:29.847Z,98972.50
2019-03-05T04:13:01.062Z,98977.72
2019-03-05T04:13:32.299Z,98981.22
2019-03-05T04:14:03.517Z,98979.98
2019-03-05T04:14:34.708Z,98985.10
2019-03-05T04:15:05.925Z,98987.19
2019-03-05T04:15:37.118Z,98992.27
2019-03-05T04:16:08.320Z,98993.13
2019-03-05T04:16:39.530Z,98987.53
2019-03-05T04:17:10.762Z,98989.71
2019-03-05T04:17:41.977Z,98986.70
2019-03-05T04:18:13.230Z,98994.43
2019-03-05T04:18:44.507Z,98988.86
2019-03-05T04:19:15.700Z,98989.31
2019-03-05T04:19:46.919Z,98994.47
2019-03-05T04:20:18.123Z,98985.44
2019-03-05T04:20:49.309Z,98979.04
2019-03-05T04:21:20.519Z,98985.94
2019-03-05T04:21:51.811Z,98981.23
2019-03-05T04:22:23.031Z,98988.09
2019-03-05T04:22:54.288Z,98984.25
2019-03-05T04:23:25.507Z,98985.10
2019-03-05T04:23:56.780Z,98984.28
2019-03-05T04:24:27.992Z,98983.39
2019-03-05T04:24:59.193Z,98983.39
2019-03-05T04:25:30.400Z,98983.41
2019-03-05T04:26:01.647Z,98987.28
2019-03-05T04:26:32.906Z,98986.42
2019-03-05T04:27:04.119Z,98993.70
2019-03-05T04:27:35.326Z,98997.58
2019-03-05T04:28:06.538Z,98998.88
2019-03-05T04:28:37.745Z,98998.91
2019-03-05T04:29:09.101Z,99002.76
2019-03-05T04:29:40.311Z,99004.91
2019-03-05T04:30:11.522Z,99007.90
2019-03-05T04:30:42.723Z,99011.33
2019-03-05T04:31:13.956Z,99010.91
2019-03-05T04:31:45.200Z,99008.77
2019-03-05T04:32:16.400Z,98999.72
2019-03-05T04:32:47.619Z,99004.00
2019-03-05T04:33:18.828Z,99007.85
2019-03-05T04:33:50.038Z,99013.03
2019-03-05T04:34:21.251Z,99013.08
2019-03-05T04:34:52.479Z,99016.57
2019-03-05T04:35:23.732Z,99020.88
2019-03-05T04:35:54.931Z,99016.15
2019-03-05T04:36:26.186Z,99024.28
2019-03-05T04:36:57.409Z,99022.13
2019-03-05T04:37:28.634Z,99022.55
2019-03-05T04:37:59.836Z,99021.69
2019-03-05T04:38:31.079Z,99019.10
2019-03-05T04:39:02.284Z,99019.55
2019-03-05T04:39:33.506Z,99015.69
2019-03-05T04:40:04.762Z,99015.69
2019-03-05T04:40:35.978Z,99024.24
2019-03-05T04:41:07.191Z,99023.80
2019-03-05T04:41:38.416Z,99027.25
2019-03-05T04:42:09.636Z,99024.68
2019-03-05T04:42:40.887Z,99020.39
2019-03-05T04:43:12.088Z,99019.95
2019-03-05T04:43:43.302Z,99021.23
2019-03-05T04:44:14.533Z,99015.24
2019-03-05T04:44:45.735Z,99015.27
2019-03-05T04:45:16.952Z,99018.25
2019-03-05T04:45:48.187Z,99013.51
2019-03-05T04:46:19.421Z,99016.52
2019-03-05T04:46:50.674Z,99016.92
2019-03-05T04:47:21.874Z,99010.52
2019-03-05T04:47:53.083Z,99011.81
2019-03-05T04:48:24.386Z,99004.95
2019-03-05T04:48:55.609Z,99012.22
2019-03-05T04:49:26.826Z,99012.22
2019-03-05T04:49:58.021Z,99010.06
2019-03-05T04:50:29.231Z,99010.07
2019-03-05T04:51:00.448Z,99010.47
2019-03-05T04:51:31.654Z,99012.61
2019-03-05T04:52:02.905Z,99016.03
2019-03-05T04:52:34.115Z,99016.02
2019-03-05T04:53:05.340Z,99016.85
2019-03-05T04:53:36.531Z,99006.58
2019-03-05T04:54:07.765Z,99014.30
2019-03-05T04:54:38.971Z,99013.41
2019-03-05T04:55:10.187Z,99014.30
2019-03-05T04:55:41.394Z,99012.56
2019-03-05T04:56:12.610Z,99016.84
2019-03-05T04:56:43.859Z,99018.55
2019-03-05T04:57:15.188Z,99017.70
2019-03-05T04:57:46.385Z,99016.83
2019-03-05T04:58:17.597Z,99016.80
2019-03-05T04:58:48.822Z,99021.95
2019-03-05T04:59:20.029Z,99020.23
2019-03-05T04:59:51.233Z,99017.66
2019-03-05T05:00:22.456Z,99014.23
2019-03-05T05:00:53.694Z,99020.63
2019-03-05T05:01:24.920Z,99020.20
2019-03-05T05:01:56.165Z,99019.34
2019-03-05T05:02:27.458Z,99017.17
2019-03-05T05:02:58.683Z,99016.30
2019-03-05T05:03:29.891Z,99017.52
2019-03-05T05:04:01.113Z,99015.33
2019-03-05T05:04:32.380Z,99014.00
2019-03-05T05:05:03.606Z,99013.08
2019-03-05T05:05:34.819Z,99010.45
2019-03-05T05:06:06.092Z,99018.10
2019-03-05T05:06:37.301Z,99018.95
2019-03-05T05:07:08.580Z,99015.91
2019-03-05T05:07:40.109Z,99016.30
2019-03-05T05:08:11.318Z,99021.88
2019-03-05T05:08:42.685Z,99022.27
2019-03-05T05:09:13.923Z,99017.94
2019-03-05T05:09:45.177Z,99013.57
2019-03-05T05:10:16.399Z,99018.62
2019-03-05T05:10:47.622Z,99017.64
2019-03-05T05:11:18.860Z,99018.84
2019-03-05T05:11:50.113Z,99019.99
2019-03-05T05:12:21.335Z,99018.17
2019-03-05T05:12:52.547Z,99020.67
2019-03-05T05:13:23.759Z,99021.02
2019-03-05T05:13:54.980Z,99025.28
2019-03-05T05:14:26.206Z,99025.63
2019-03-05T05:14:57.422Z,99023.43
2019-03-05T05:15:28.641Z,99024.57
2019-03-05T05:15:59.835Z,99025.80
2019-03-05T05:16:31.025Z,99021.52
2019-03-05T05:17:02.254Z,99020.38
2019-03-05T05:17:33.502Z,99021.27
2019-03-05T05:18:04.702Z,99011.82
2019-03-05T05:18:35.955Z,99018.23
2019-03-05T05:19:07.171Z,99017.75
2019-03-05T05:19:38.413Z,99017.23
2019-03-05T05:20:09.650Z,99021.05
2019-03-05T05:20:40.846Z,99022.30
2019-03-05T05:21:12.054Z,99025.67
2019-03-05T05:21:43.251Z,99025.67
2019-03-05T05:22:14.477Z,99021.92
2019-03-05T05:22:45.684Z,99029.81
2019-03-05T05:23:16.896Z,99024.73
2019-03-05T05:23:48.154Z,99026.08
2019-03-05T05:24:19.381Z,99029.95
2019-03-05T05:24:50.646Z,99031.88
2019-03-05T05:25:21.852Z,99034.20
2019-03-05T05:25:53.072Z,99033.97
2019-03-05T05:26:24.249Z,99039.33
2019-03-05T05:26:55.504Z,99040.94
2019-03-05T05:27:26.700Z,99048.37
2019-03-05T05:27:57.916Z,99042.00
2019-03-05T05:28:29.154Z,99052.55
2019-03-05T05:29:00.401Z,99054.11
2019-03-05T05:29:31.602Z,99050.81
2019-03-05T05:30:02.826Z,99053.34
2019-03-05T05:30:34.052Z,99051.62
2019-03-05T05:31:05.303Z,99054.63
2019-03-05T05:31:36.513Z,99050.29
2019-03-05T05:32:07.734Z,99054.95
2019-03-05T05:32:38.958Z,99051.51
2019-03-05T05:33:10.170Z,99049.77
2019-03-05T05:33:41.371Z,99051.06
2019-03-05T05:34:12.584Z,99053.67
2019-03-05T05:34:43.791Z,99057.98
2019-03-05T05:35:15.078Z,99051.61
2019-03-05T05:35:46.293Z,99052.45
2019-03-05T05:36:17.495Z,99052.03
2019-03-05T05:36:48.713Z,99055.85
2019-03-05T05:37:21.818Z,99054.48
2019-03-05T05:37:52.998Z,99049.69
2019-03-05T05:38:24.220Z,99054.31
2019-03-05T05:38:55.440Z,99049.06
2019-03-05T05:39:26.660Z,99052.44
2019-03-05T05:39:57.868Z,99051.94
2019-03-05T05:40:29.114Z,99049.75
2019-03-05T05:41:00.317Z,99049.66
2019-03-05T05:41:31.562Z,99048.77
2019-03-05T05:42:02.805Z,99047.00
2019-03-05T05:42:34.057Z,99049.95
2019-03-05T05:43:05.311Z,99046.47
2019-03-05T05:43:36.519Z,99051.55
2019-03-05T05:44:07.717Z,99045.80
2019-03-05T05:44:38.966Z,99047.48
2019-03-05T05:45:10.177Z,99052.59
2019-03-05T05:45:41.388Z,99050.34
2019-03-05T05:46:12.612Z,99050.67
2019-03-05T05:46:43.875Z,99054.06
2019-03-05T05:47:15.071Z,99060.44
2019-03-05T05:47:46.264Z,99062.53
2019-03-05T05:48:17.502Z,99062.20
2019-03-05T05:48:48.749Z,99062.42
2019-03-05T05:49:19.977Z,99062.55
2019-03-05T05:49:51.198Z,99068.67
2019-03-05T05:50:22.404Z,99071.31
2019-03-05T05:50:53.609Z,99073.06
2019-03-05T05:51:24.862Z,99081.73
2019-03-05T05:51:56.078Z,99075.31
2019-03-05T05:52:27.287Z,99084.32
2019-03-05T05:52:58.481Z,99077.81
2019-03-05T05:53:29.692Z,99082.89
2019-03-05T05:54:00.892Z,99074.20
2019-03-05T05:54:32.096Z,99071.98
2019-03-05T05:55:03.404Z,99082.72
2019-03-05T05:55:34.587Z,99079.63
2019-03-05T05:56:05.838Z,99077.03
2019-03-05T05:56:37.035Z,99080.91
2019-03-05T05:57:08.261Z,99078.75
2019-03-05T05:57:39.470Z,99082.62
2019-03-05T05:58:10.686Z,99084.70
2019-03-05T05:58:41.896Z,99081.69
2019-03-05T05:59:13.140Z,99076.55
2019-03-05T05:59:44.379Z,99080.79
2019-03-05T06:00:15.637Z,99079.47
2019-03-05T06:00:46.833Z,99080.66
2019-03-05T06:01:18.045Z,99084.94
2019-03-05T06:01:49.293Z,99082.89
2019-03-05T06:02:20.546Z,99086.77
2019-03-05T06:02:51.767Z,99089.81
2019-03-05T06:03:23.005Z,99088.97
2019-03-05T06:03:54.241Z,99092.84
2019-03-05T06:04:25.469Z,99095.43
2019-03-05T06:04:56.707Z,99095.97
2019-03-05T06:05:27.912Z,99093.86
2019-03-05T06:05:59.155Z,99095.16
2019-03-05T06:06:30.373Z,99087.85
2019-03-05T06:07:01.575Z,99093.45